createdAt,value
2019-03-20T00:00:23.243Z,8.93
2019-03-20T00:02:51.757Z,8.63
2019-03-20T00:05:20.203Z,10.10
2019-03-20T00:07:48.716Z,9.13
2019-03-20T00:10:17.954Z,8.97
2019-03-20T00:12:46.462Z,8.40
2019-03-20T00:15:17.658Z,10.00
2019-03-20T00:17:46.086Z,9.87
2019-03-20T00:20:14.979Z,9.97
2019-03-20T00:22:43.553Z,9.70
2019-03-20T00:25:12.896Z,13.17
2019-03-20T00:27:41.575Z,9.10
2019-03-20T00:30:15.292Z,12.83
2019-03-20T00:32:43.764Z,11.40
2019-03-20T00:35:12.344Z,11.13
2019-03-20T00:37:40.844Z,8.40
2019-03-20T00:40:14.331Z,9.37
2019-03-20T00:42:42.813Z,8.67
2019-03-20T00:45:14.075Z,9.50
2019-03-20T00:47:42.514Z,9.07
2019-03-20T00:50:13.886Z,9.00
2019-03-20T00:52:42.542Z,10.70
2019-03-20T00:55:13.331Z,9.57
2019-03-20T00:57:41.902Z,9.60
2019-03-20T01:00:15.930Z,8.80
2019-03-20T01:02:44.366Z,7.90
2019-03-20T01:05:13.200Z,9.37
2019-03-20T01:07:41.670Z,8.73
2019-03-20T01:10:12.982Z,9.00
2019-03-20T01:12:41.436Z,11.27
2019-03-20T01:15:10.166Z,11.70
2019-03-20T01:17:38.598Z,11.80
2019-03-20T01:20:12.901Z,11.07
2019-03-20T01:22:41.389Z,9.47
2019-03-20T01:25:10.790Z,7.97
2019-03-20T01:27:39.334Z,9.17
2019-03-20T01:30:12.407Z,7.03
2019-03-20T01:32:40.837Z,6.17
2019-03-20T01:35:09.317Z,10.87
2019-03-20T01:37:37.801Z,7.03
2019-03-20T01:40:07.795Z,7.90
2019-03-20T01:42:36.223Z,4.63
2019-03-20T01:45:05.892Z,6.90
2019-03-20T01:47:34.331Z,7.23
2019-03-20T01:50:03.060Z,9.60
2019-03-20T01:52:31.479Z,8.53
2019-03-20T01:54:59.955Z,6.97
2019-03-20T01:57:28.397Z,11.10
2019-03-20T01:59:56.867Z,5.47
2019-03-20T02:02:25.381Z,9.23
2019-03-20T02:04:53.887Z,11.87
2019-03-20T02:07:22.330Z,8.47
2019-03-20T02:09:50.783Z,8.07
2019-03-20T02:12:19.219Z,7.93
2019-03-20T02:14:47.675Z,6.27
2019-03-20T02:17:16.114Z,7.47
2019-03-20T02:19:44.579Z,11.13
2019-03-20T02:22:13.015Z,10.17
2019-03-20T02:24:41.465Z,7.23
2019-03-20T02:27:09.914Z,5.63
2019-03-20T02:29:38.346Z,11.90
2019-03-20T02:32:06.826Z,10.43
2019-03-20T02:34:35.327Z,7.27
2019-03-20T02:37:03.850Z,11.57
2019-03-20T02:39:32.279Z,7.77
2019-03-20T02:42:00.748Z,8.47
2019-03-20T02:44:29.190Z,7.37
2019-03-20T02:46:57.710Z,11.47
2019-03-20T02:49:26.192Z,11.30
2019-03-20T02:51:54.678Z,7.77
2019-03-20T02:54:23.175Z,8.17
2019-03-20T02:56:51.652Z,9.43
2019-03-20T02:59:20.183Z,11.60
2019-03-20T03:01:48.699Z,8.23
2019-03-20T03:04:17.154Z,11.93
2019-03-20T03:06:45.605Z,7.77
2019-03-20T03:09:14.045Z,8.10
2019-03-20T03:11:42.517Z,6.67
2019-03-20T03:14:11.010Z,6.10
2019-03-20T03:16:39.462Z,9.70
2019-03-20T03:19:07.908Z,6.10
2019-03-20T03:21:36.429Z,9.63
2019-03-20T03:24:04.883Z,9.80
2019-03-20T03:26:33.409Z,5.53
2019-03-20T03:29:01.904Z,8.53
2019-03-20T03:31:30.376Z,11.30
2019-03-20T03:33:58.881Z,6.40
2019-03-20T03:36:27.398Z,7.57
2019-03-20T03:38:55.839Z,9.37
2019-03-20T03:41:24.279Z,8.90
2019-03-20T03:43:52.739Z,9.53
2019-03-20T03:46:21.196Z,9.87
2019-03-20T03:48:49.635Z,11.10
2019-03-20T03:51:18.113Z,9.53
2019-03-20T03:53:46.617Z,12.77
2019-03-20T03:56:15.075Z,11.03
2019-03-20T03:58:43.522Z,13.50
2019-03-20T04:01:11.993Z,10.40
2019-03-20T04:03:40.423Z,10.00
2019-03-20T04:06:08.939Z,9.00
2019-03-20T04:08:37.383Z,9.77
2019-03-20T04:11:05.849Z,8.57
2019-03-20T04:13:34.339Z,5.97
2019-03-20T04:16:02.786Z,9.23
2019-03-20T04:18:31.232Z,7.00
2019-03-20T04:20:59.676Z,8.90
2019-03-20T04:23:28.116Z,7.90
2019-03-20T04:25:56.546Z,7.73
2019-03-20T04:28:25.003Z,6.57
2019-03-20T04:30:53.528Z,6.83
2019-03-20T04:33:22.056Z,8.87
2019-03-20T04:35:50.550Z,4.27
2019-03-20T04:38:19.023Z,7.90
2019-03-20T04:40:47.541Z,7.53
2019-03-20T04:43:15.998Z,11.60
2019-03-20T04:45:44.433Z,9.97
2019-03-20T04:48:12.894Z,9.30
2019-03-20T04:50:41.343Z,10.07
2019-03-20T04:53:09.821Z,9.53
2019-03-20T04:55:38.297Z,8.57
2019-03-20T04:58:06.792Z,10.30
2019-03-20T05:00:35.299Z,12.43
2019-03-20T05:03:03.765Z,8.27
2019-03-20T05:05:32.262Z,9.60
2019-03-20T05:08:00.719Z,8.13
2019-03-20T05:10:29.160Z,8.63
2019-03-20T05:12:57.608Z,7.37
2019-03-20T05:15:26.050Z,9.43
2019-03-20T05:17:54.536Z,8.93
2019-03-20T05:20:23.145Z,11.83
2019-03-20T05:22:51.604Z,12.00
2019-03-20T05:25:20.038Z,8.23
2019-03-20T05:27:48.484Z,13.43
2019-03-20T05:30:16.989Z,8.20
2019-03-20T05:32:45.453Z,8.20
2019-03-20T05:35:13.966Z,13.90
2019-03-20T05:37:42.632Z,13.43
2019-03-20T05:40:17.587Z,9.53
2019-03-20T05:42:46.170Z,13.03
2019-03-20T05:45:19.279Z,9.33
2019-03-20T05:47:47.783Z,10.33
2019-03-20T05:50:16.950Z,11.37
2019-03-20T05:52:45.483Z,12.37
2019-03-20T05:55:13.990Z,11.10
2019-03-20T05:57:42.584Z,9.60
2019-03-20T06:00:21.964Z,13.23
2019-03-20T06:02:50.444Z,11.07
2019-03-20T06:05:18.861Z,7.93
2019-03-20T06:07:47.968Z,10.33
2019-03-20T06:10:17.396Z,12.27
2019-03-20T06:12:45.838Z,9.57
2019-03-20T06:15:14.652Z,9.53
2019-03-20T06:17:43.433Z,9.13
2019-03-20T06:20:13.958Z,7.37
2019-03-20T06:22:42.392Z,9.77
2019-03-20T06:25:13.158Z,14.77
2019-03-20T06:27:41.658Z,8.17
2019-03-20T06:30:16.008Z,8.00
2019-03-20T06:32:44.447Z,9.17
2019-03-20T06:35:13.356Z,11.07
2019-03-20T06:37:41.794Z,10.20
2019-03-20T06:40:12.844Z,13.43
2019-03-20T06:42:41.291Z,9.60
2019-03-20T06:45:12.823Z,7.50
2019-03-20T06:47:41.280Z,16.97
2019-03-20T06:50:16.732Z,12.20
2019-03-20T06:52:45.169Z,16.17
2019-03-20T06:55:13.762Z,10.73
2019-03-20T06:57:42.214Z,11.83
2019-03-20T07:00:40.517Z,10.87
2019-03-20T07:03:12.030Z,11.00
2019-03-20T07:06:15.258Z,16.10
2019-03-20T07:08:52.672Z,13.13
2019-03-20T07:11:20.034Z,8.67
2019-03-20T07:13:50.561Z,7.17
2019-03-20T07:16:18.647Z,10.57
2019-03-20T07:18:47.107Z,11.87
2019-03-20T07:21:15.548Z,11.03
2019-03-20T07:23:43.994Z,9.50
2019-03-20T07:26:12.445Z,8.23
2019-03-20T07:28:40.880Z,15.70
2019-03-20T07:31:15.303Z,9.77
2019-03-20T07:33:39.493Z,9.57
2019-03-20T07:36:07.949Z,6.17
2019-03-20T07:38:36.391Z,8.47
2019-03-20T07:41:05.093Z,11.27
2019-03-20T07:43:33.544Z,11.13
2019-03-20T07:46:01.998Z,8.07
2019-03-20T07:48:30.442Z,10.73
2019-03-20T07:50:58.899Z,9.37
2019-03-20T07:53:27.346Z,8.43
2019-03-20T07:55:55.795Z,6.83
2019-03-20T07:58:24.238Z,6.80
2019-03-20T08:00:52.687Z,8.00
2019-03-20T08:03:21.134Z,9.53
2019-03-20T08:05:49.617Z,12.17
2019-03-20T08:08:18.055Z,12.60
2019-03-20T08:10:46.520Z,10.07
2019-03-20T08:13:14.960Z,10.13
2019-03-20T08:15:43.408Z,6.03
2019-03-20T08:18:11.842Z,10.10
2019-03-20T08:20:40.298Z,11.37
2019-03-20T08:23:08.742Z,6.73
2019-03-20T08:25:37.374Z,11.03
2019-03-20T08:28:05.819Z,10.10
2019-03-20T08:30:34.281Z,6.50
2019-03-20T08:33:02.800Z,9.60
2019-03-20T08:35:31.311Z,7.00
2019-03-20T08:37:59.758Z,6.90
2019-03-20T08:40:28.198Z,8.97
2019-03-20T08:42:56.652Z,11.03
2019-03-20T08:45:25.106Z,12.87
2019-03-20T08:47:53.538Z,9.20
2019-03-20T08:50:23.122Z,10.10
2019-03-20T08:52:51.574Z,9.40
2019-03-20T08:55:20.930Z,9.63
2019-03-20T08:57:49.608Z,9.43
2019-03-20T09:00:19.846Z,7.17
2019-03-20T09:02:48.347Z,8.57
2019-03-20T09:05:17.079Z,8.07
2019-03-20T09:07:47.402Z,7.67
2019-03-20T09:10:21.639Z,7.20
2019-03-20T09:12:50.080Z,6.83
2019-03-20T09:15:19.200Z,9.87
2019-03-20T09:17:47.763Z,9.20
2019-03-20T09:20:24.102Z,16.07
2019-03-20T09:22:52.627Z,7.97
2019-03-20T09:25:26.045Z,6.53
2019-03-20T09:27:54.572Z,9.37
2019-03-20T09:30:23.827Z,8.37
2019-03-20T09:32:52.616Z,10.07
2019-03-20T09:35:21.317Z,12.03
2019-03-20T09:37:52.090Z,13.63
2019-03-20T09:40:26.881Z,12.37
2019-03-20T09:42:55.339Z,8.03
2019-03-20T09:45:24.307Z,7.27
2019-03-20T09:47:52.760Z,9.03
2019-03-20T09:50:24.949Z,9.10
2019-03-20T09:52:53.414Z,9.90
2019-03-20T09:55:21.873Z,8.47
2019-03-20T09:57:50.406Z,12.07
2019-03-20T10:00:23.685Z,9.40
2019-03-20T10:02:52.334Z,6.60
2019-03-20T10:05:20.772Z,9.57
2019-03-20T10:07:49.297Z,9.43
2019-03-20T10:10:22.553Z,8.97
2019-03-20T10:12:51.264Z,12.37
2019-03-20T10:15:25.038Z,11.40
2019-03-20T10:17:53.499Z,10.00
2019-03-20T10:20:22.687Z,12.70
2019-03-20T10:22:51.172Z,14.10
2019-03-20T10:25:19.686Z,13.33
2019-03-20T10:27:48.207Z,14.10
2019-03-20T10:30:24.624Z,16.43
2019-03-20T10:32:53.163Z,14.80
2019-03-20T10:35:21.618Z,12.47
2019-03-20T10:37:50.072Z,13.37
2019-03-20T10:40:26.315Z,17.77
2019-03-20T10:42:54.851Z,13.37
2019-03-20T10:45:23.433Z,15.93
2019-03-20T10:47:53.295Z,13.43
2019-03-20T10:50:25.860Z,12.03
2019-03-20T10:52:54.310Z,15.37
2019-03-20T10:55:22.755Z,11.83
2019-03-20T10:57:51.214Z,10.10
2019-03-20T11:00:21.831Z,12.83
2019-03-20T11:02:50.367Z,15.30
2019-03-20T11:05:19.147Z,10.13
2019-03-20T11:07:47.733Z,12.67
2019-03-20T11:10:29.506Z,14.23
2019-03-20T11:12:58.155Z,13.13
2019-03-20T11:15:28.572Z,13.87
2019-03-20T11:17:56.967Z,11.67
2019-03-20T11:20:25.776Z,11.53
2019-03-20T11:22:54.246Z,16.03
2019-03-20T11:25:24.687Z,15.20
2019-03-20T11:27:53.142Z,13.00
2019-03-20T11:30:23.025Z,13.60
2019-03-20T11:32:51.488Z,14.77
2019-03-20T11:35:19.927Z,13.87
2019-03-20T11:37:48.403Z,12.37
2019-03-20T11:40:30.414Z,13.40
2019-03-20T11:42:58.877Z,12.43
2019-03-20T11:45:27.314Z,11.53
2019-03-20T11:47:55.791Z,12.30
2019-03-20T11:50:32.695Z,18.50
2019-03-20T11:53:01.165Z,16.27
2019-03-20T11:55:29.620Z,12.83
2019-03-20T11:57:58.100Z,12.77
2019-03-20T12:00:26.805Z,12.23
2019-03-20T12:02:55.265Z,14.43
2019-03-20T12:05:23.708Z,12.80
2019-03-20T12:07:52.165Z,12.70
2019-03-20T12:10:30.601Z,17.40
2019-03-20T12:12:59.098Z,13.10
2019-03-20T12:15:27.536Z,14.17
2019-03-20T12:17:56.076Z,14.57
2019-03-20T12:20:25.129Z,14.47
2019-03-20T12:22:53.695Z,16.13
2019-03-20T12:25:30.314Z,15.93
2019-03-20T12:27:58.916Z,15.13
2019-03-20T12:30:30.430Z,14.53
2019-03-20T12:32:58.978Z,12.40
2019-03-20T12:35:29.925Z,13.93
2019-03-20T12:37:58.397Z,9.60
2019-03-20T12:40:29.234Z,12.73
2019-03-20T12:42:58.330Z,15.07
2019-03-20T12:45:35.580Z,14.47
2019-03-20T12:48:04.998Z,14.27
2019-03-20T12:50:33.443Z,13.27
2019-03-20T12:53:02.195Z,13.00
2019-03-20T12:55:31.241Z,11.33
2019-03-20T12:57:59.846Z,13.60
2019-03-20T13:00:28.600Z,16.67
2019-03-20T13:02:57.098Z,15.37
2019-03-20T13:05:25.616Z,14.07
2019-03-20T13:07:54.062Z,14.80
2019-03-20T13:10:28.448Z,16.50
2019-03-20T13:12:56.894Z,18.60
2019-03-20T13:15:26.291Z,17.87
2019-03-20T13:17:55.597Z,18.47
2019-03-20T13:20:24.343Z,18.93
2019-03-20T13:22:58.562Z,16.70
2019-03-20T13:25:27.037Z,14.97
2019-03-20T13:27:55.474Z,15.77
2019-03-20T13:30:50.745Z,21.67
2019-03-20T13:33:25.731Z,17.77
2019-03-20T13:35:49.411Z,16.80
2019-03-20T13:38:17.870Z,17.63
2019-03-20T13:40:46.505Z,16.90
2019-03-20T13:43:14.946Z,22.33
2019-03-20T13:45:43.422Z,15.87
2019-03-20T13:48:11.878Z,17.00
2019-03-20T13:50:40.373Z,18.97
2019-03-20T13:53:08.815Z,17.17
2019-03-20T13:55:37.297Z,18.43
2019-03-20T13:58:05.735Z,15.93
2019-03-20T14:00:34.211Z,15.27
2019-03-20T14:03:02.674Z,20.03
2019-03-20T14:05:31.141Z,15.33
2019-03-20T14:07:59.581Z,17.63
2019-03-20T14:10:29.086Z,15.90
2019-03-20T14:12:57.570Z,15.87
2019-03-20T14:15:26.093Z,17.87
2019-03-20T14:17:54.599Z,17.00
2019-03-20T14:20:29.555Z,19.13
2019-03-20T14:22:58.175Z,16.47
2019-03-20T14:25:26.648Z,16.33
2019-03-20T14:27:55.179Z,16.80
2019-03-20T14:30:30.572Z,17.00
2019-03-20T14:32:59.082Z,16.73
2019-03-20T14:35:27.545Z,16.97
2019-03-20T14:37:56.013Z,16.43
2019-03-20T14:40:37.653Z,19.17
2019-03-20T14:43:00.890Z,18.00
2019-03-20T14:45:29.482Z,17.83
2019-03-20T14:47:57.934Z,15.43
2019-03-20T14:50:27.464Z,19.17
2019-03-20T14:52:55.968Z,16.47
2019-03-20T14:55:24.434Z,17.40
2019-03-20T14:57:53.116Z,12.40
2019-03-20T15:00:28.618Z,17.93
2019-03-20T15:02:57.200Z,17.13
2019-03-20T15:05:25.653Z,16.13
2019-03-20T15:07:54.166Z,18.63
2019-03-20T15:10:26.123Z,18.43
2019-03-20T15:12:54.911Z,17.87
2019-03-20T15:15:42.784Z,15.40
2019-03-20T15:18:11.267Z,12.97
2019-03-20T15:20:39.792Z,15.20
2019-03-20T15:23:08.321Z,15.20
2019-03-20T15:25:36.842Z,10.43
2019-03-20T15:28:05.355Z,11.23
2019-03-20T15:30:33.845Z,11.60
2019-03-20T15:33:02.308Z,10.70
2019-03-20T15:35:30.835Z,11.63
2019-03-20T15:37:59.350Z,11.07
2019-03-20T15:40:29.138Z,9.67
2019-03-20T15:42:57.589Z,10.77
2019-03-20T15:45:26.105Z,7.73
2019-03-20T15:47:54.565Z,11.23
2019-03-20T15:50:27.212Z,13.60
2019-03-20T15:52:55.638Z,7.30
2019-03-20T15:55:33.978Z,10.07
2019-03-20T15:58:02.417Z,9.70
2019-03-20T16:00:30.911Z,11.53
2019-03-20T16:03:20.535Z,9.33
2019-03-20T16:05:48.996Z,9.10
2019-03-20T16:08:17.450Z,8.90
2019-03-20T16:10:45.979Z,10.37
2019-03-20T16:13:14.428Z,9.67
2019-03-20T16:15:42.890Z,11.10
2019-03-20T16:18:11.354Z,10.77
2019-03-20T16:20:39.818Z,9.33
2019-03-20T16:23:08.290Z,12.33
2019-03-20T16:25:36.742Z,11.67
2019-03-20T16:28:05.262Z,12.03
2019-03-20T16:30:33.784Z,11.90
2019-03-20T16:33:02.248Z,10.30
2019-03-20T16:35:30.678Z,10.20
2019-03-20T16:37:59.152Z,12.73
2019-03-20T16:40:31.871Z,14.17
2019-03-20T16:43:00.420Z,11.90
2019-03-20T16:45:35.696Z,15.47
2019-03-20T16:48:04.892Z,13.13
2019-03-20T16:50:33.340Z,9.67
2019-03-20T16:53:01.809Z,10.13
2019-03-20T16:55:30.264Z,12.90
2019-03-20T16:57:58.725Z,12.67
2019-03-20T17:00:31.304Z,15.40
2019-03-20T17:02:59.940Z,13.97
2019-03-20T17:05:30.547Z,10.80
2019-03-20T17:07:58.998Z,9.73
2019-03-20T17:10:43.651Z,12.33
2019-03-20T17:13:12.180Z,11.63
2019-03-20T17:15:42.631Z,10.17
2019-03-20T17:18:11.101Z,13.77
2019-03-20T17:20:39.645Z,12.43
2019-03-20T17:23:08.194Z,11.13
2019-03-20T17:25:36.825Z,12.40
2019-03-20T17:28:06.226Z,10.93
2019-03-20T17:30:39.051Z,12.47
2019-03-20T17:33:08.040Z,9.03
2019-03-20T17:35:37.549Z,9.73
2019-03-20T17:38:06.474Z,10.10
2019-03-20T17:40:34.930Z,12.50
2019-03-20T17:43:03.862Z,14.23
2019-03-20T17:45:32.877Z,11.53
2019-03-20T17:48:01.415Z,10.80
2019-03-20T17:50:31.307Z,13.27
2019-03-20T17:52:59.837Z,11.03
2019-03-20T17:55:28.354Z,11.17
2019-03-20T17:57:56.824Z,8.00
2019-03-20T18:00:30.970Z,16.97
2019-03-20T18:02:59.448Z,13.17
2019-03-20T18:05:27.887Z,13.33
2019-03-20T18:07:56.343Z,11.23
2019-03-20T18:10:24.792Z,11.47
2019-03-20T18:12:53.677Z,10.77
2019-03-20T18:15:22.181Z,8.67
2019-03-20T18:17:50.639Z,9.70
2019-03-20T18:20:20.328Z,11.07
2019-03-20T18:22:48.869Z,9.50
2019-03-20T18:25:17.379Z,8.70
2019-03-20T18:27:45.919Z,12.23
2019-03-20T18:30:19.558Z,12.00
2019-03-20T18:32:48.135Z,8.73
2019-03-20T18:35:16.737Z,11.20
2019-03-20T18:37:45.200Z,10.30
2019-03-20T18:40:16.183Z,10.70
2019-03-20T18:42:44.815Z,13.53
2019-03-20T18:45:15.322Z,10.77
2019-03-20T18:47:43.831Z,11.93
2019-03-20T18:50:14.440Z,10.83
2019-03-20T18:52:42.977Z,11.83
2019-03-20T18:55:13.259Z,13.00
2019-03-20T18:57:41.743Z,12.37
2019-03-20T19:00:28.329Z,13.17
2019-03-20T19:03:02.426Z,12.10
2019-03-20T19:05:33.996Z,11.67
2019-03-20T19:08:02.545Z,10.93
2019-03-20T19:10:31.074Z,11.60
2019-03-20T19:12:59.663Z,10.90
2019-03-20T19:15:28.120Z,8.80
2019-03-20T19:17:56.579Z,10.80
2019-03-20T19:20:25.039Z,11.83
2019-03-20T19:22:53.594Z,11.73
2019-03-20T19:25:22.100Z,12.80
2019-03-20T19:27:50.562Z,11.50
2019-03-20T19:30:23.471Z,12.47
2019-03-20T19:32:51.988Z,11.93
2019-03-20T19:35:20.650Z,9.63
2019-03-20T19:37:49.100Z,8.20
2019-03-20T19:40:19.549Z,9.63
2019-03-20T19:42:47.997Z,11.80
2019-03-20T19:45:17.204Z,10.87
2019-03-20T19:47:45.787Z,11.43
2019-03-20T19:50:15.294Z,9.20
2019-03-20T19:52:43.730Z,10.23
2019-03-20T19:55:16.433Z,11.00
2019-03-20T19:57:44.934Z,9.27
2019-03-20T20:00:22.190Z,8.30
2019-03-20T20:02:50.711Z,9.33
2019-03-20T20:05:19.358Z,8.77
2019-03-20T20:07:48.096Z,16.30
2019-03-20T20:10:18.741Z,13.20
2019-03-20T20:12:47.518Z,12.20
2019-03-20T20:15:28.745Z,12.37
2019-03-20T20:17:57.383Z,8.83
2019-03-20T20:20:33.850Z,11.17
2019-03-20T20:23:04.363Z,14.60
2019-03-20T20:25:32.503Z,12.53
2019-03-20T20:28:01.014Z,11.17
2019-03-20T20:30:29.470Z,10.70
2019-03-20T20:32:57.922Z,12.17
2019-03-20T20:35:26.418Z,13.10
2019-03-20T20:37:56.896Z,8.67
2019-03-20T20:40:27.763Z,12.00
2019-03-20T20:42:56.195Z,11.83
2019-03-20T20:45:24.675Z,9.57
2019-03-20T20:47:53.109Z,12.03
2019-03-20T20:50:21.651Z,8.60
2019-03-20T20:52:50.094Z,13.97
2019-03-20T20:55:20.662Z,11.87
2019-03-20T20:57:49.133Z,11.60
2019-03-20T21:00:19.110Z,10.47
2019-03-20T21:02:47.589Z,12.47
2019-03-20T21:05:16.113Z,13.20
2019-03-20T21:07:44.553Z,12.67
2019-03-20T21:10:23.107Z,11.20
2019-03-20T21:12:56.624Z,14.47
2019-03-20T21:15:36.550Z,12.80
2019-03-20T21:18:14.026Z,15.67
2019-03-20T21:20:42.653Z,11.80
2019-03-20T21:23:40.964Z,13.17
2019-03-20T21:26:21.166Z,14.27
2019-03-20T21:29:11.799Z,12.87
2019-03-20T21:31:43.378Z,14.17
2019-03-20T21:34:23.937Z,13.87
2019-03-20T21:37:23.795Z,14.33
2019-03-20T21:39:52.281Z,17.63
2019-03-20T21:42:32.442Z,13.57
2019-03-20T21:45:15.842Z,14.03
2019-03-20T21:47:44.309Z,14.33
2019-03-20T21:50:50.423Z,18.13
2019-03-20T21:53:48.291Z,18.87
2019-03-20T21:56:22.438Z,15.30
2019-03-20T21:59:08.956Z,16.97
2019-03-20T22:01:43.096Z,16.17
2019-03-20T22:04:11.549Z,17.20
2019-03-20T22:07:10.849Z,16.17
2019-03-20T22:09:54.398Z,16.70
2019-03-20T22:12:34.828Z,17.80
2019-03-20T22:15:21.329Z,19.20
2019-03-20T22:18:01.616Z,18.63
2019-03-20T22:20:33.126Z,17.30
2019-03-20T22:23:22.731Z,16.07
2019-03-20T22:26:11.861Z,18.87
2019-03-20T22:29:07.025Z,19.27
2019-03-20T22:31:47.423Z,22.03
2019-03-20T22:34:30.821Z,18.43
2019-03-20T22:36:59.318Z,18.17
2019-03-20T22:40:04.874Z,21.33
2019-03-20T22:42:58.149Z,22.00
2019-03-20T22:46:02.848Z,22.00
2019-03-20T22:48:50.711Z,19.53
2019-03-20T22:51:38.450Z,23.80
2019-03-20T22:54:15.825Z,21.83
2019-03-20T22:57:01.689Z,24.40
2019-03-20T22:59:30.168Z,25.20
2019-03-20T23:02:04.425Z,24.03
2019-03-20T23:04:35.996Z,27.07
2019-03-20T23:07:04.445Z,22.83
2019-03-20T23:09:32.895Z,24.53
2019-03-20T23:12:02.932Z,22.27
2019-03-20T23:14:31.418Z,19.27
2019-03-20T23:16:59.854Z,25.40
2019-03-20T23:19:28.316Z,20.30
2019-03-20T23:21:56.750Z,23.03
2019-03-20T23:24:25.286Z,22.90
2019-03-20T23:26:54.459Z,21.80
2019-03-20T23:29:22.918Z,24.67
2019-03-20T23:31:51.422Z,28.40
2019-03-20T23:34:19.897Z,24.13
2019-03-20T23:36:48.335Z,21.30
2019-03-20T23:39:16.795Z,27.27
2019-03-20T23:41:45.236Z,27.90
2019-03-20T23:44:13.703Z,26.73
2019-03-20T23:46:42.156Z,29.57
2019-03-20T23:49:13.690Z,27.70
2019-03-20T23:51:42.146Z,26.27
2019-03-20T23:54:11.653Z,26.43
2019-03-20T23:56:43.007Z,26.07
2019-03-20T23:59:11.464Z,29.03
